Nearby METAR Reports

 

KMTN - Baltimore/Martin, Maryland, USA
Distance from station: SSE 8mi, 13km
Updated: Wed, 27-May-2015 9:45pm EDT
Mostly cloudy
Mostly cloudy
 Wind from SSE
Wind: SSE 7 mph , 11 km/h
Temperature: 75°F , 24°C
Dew Point: 72°F , 22°C
Humidity: 89%
Barometer: 30.16 inHg , 1021.3 hPa
Clouds: Mostly cloudy
Visibility: 10 miles , 16 km
Cloud details: Partly cloudy 5000 ft
Mostly cloudy 20000 ft
2015/05/28 01:45 KMTN 280145Z 15006KT 10SM SCT050 BKN200 24/22 A3016 RMK LAST
KDMH - Baltimore/Dwntwn, Maryland, USA
Distance from station: SW 12mi, 19km
Updated: Wed, 27-May-2015 8:54pm EDT

 
Temperature: 75°F , 24°C
Dew Point: 66°F , 19°C
Humidity: 74%
Barometer: 30.13 inHg , 1020.3 hPa
2015/05/28 00:54 KDMH 280054Z AUTO 24/19 A3013 RMK AO1 SLP201 T02440189
 
KBWI - Balto/Wash Intl, Maryland, USA
Distance from station: SSW 20mi, 33km
Updated: Wed, 27-May-2015 8:54pm EDT
Mostly cloudy
Mostly cloudy
 Wind from calm
Wind: Calm
Temperature: 75°F , 24°C
Dew Point: 66°F , 19°C
Humidity: 74%
Barometer: 30.12 inHg , 1020 hPa
Clouds: Mostly cloudy
Visibility: 10 miles , 16 km
Cloud details: Partly cloudy 5000 ft
Partly cloudy 8000 ft
Partly cloudy 17000 ft
Mostly cloudy 25000 ft
2015/05/28 00:54 KBWI 280054Z 00000KT 10SM SCT050 SCT080 SCT170 BKN250 24/19 A3012 RMK AO2 SLP197 OCNL LTGIC DSNT E CB DSNT E MOV NE TCU DSNT NW T02440189
KDMW - Carroll Cnty, Maryland, USA
Distance from station: WNW 30mi, 48km
Updated: Wed, 27-May-2015 11:15am EDT
NOT Current
Mostly cloudy
Mostly cloudy
 Wind from SSW
Wind: SSW 8 mph , 13 km/h
Temperature: 81°F , 27°C
Heat Index: 85°F , 29°C
Dew Point: 72°F , 22°C
Humidity: 74%
Barometer: 30.17 inHg , 1021.7 hPa
Clouds: Mostly cloudy
Visibility: 10 miles , 16 km
Cloud details: Mostly cloudy 2200 ft
Mostly cloudy 2900 ft
2015/05/27 15:15 KDMW 271515Z AUTO 20007KT 10SM BKN022 BKN029 27/22 A3017 RMK AO2
 
KNAK - Annapolis/Naval, Maryland, USA
Distance from station: S 30mi, 48km
Updated: Wed, 27-May-2015 8:54pm EDT
Few Clouds
Few Clouds
 Wind from calm
Wind: Calm
Temperature: 73°F , 23°C
Dew Point: 66°F , 19°C
Humidity: 78%
Barometer: 30.13 inHg , 1020.3 hPa
Clouds: Few Clouds
Visibility: 10 miles , 16 km
Cloud details: Few Clouds 5500 ft
2015/05/28 00:54 KNAK 280054Z AUTO 00000KT 10SM FEW055 23/19 A3013 RMK AO2 SLP205 T02280194
KW29 - Stevensville, Maryland, USA
Distance from station: SSE 31mi, 50km
Updated: Wed, 27-May-2015 11:15am EDT
NOT Current

 Wind from SSE
Wind: SSE 12 mph , 19 km/h, Gust: 17 mph , 28 km/h
Barometer: 30.18 inHg , 1022 hPa
Visibility: 10 miles , 16 km
2015/05/27 15:15 KW29 271515Z AUTO 16010G15KT 10SM A3018 RMK AO1
 
KCGS - College Park, Maryland, USA
Distance from station: SW 38mi, 61km
Updated: Wed, 27-May-2015 11:15am EDT
NOT Current
Partly cloudy
Partly cloudy
 Wind from SSW
Wind: SSW 5 mph , 7 km/h
Temperature: 81°F , 27°C
Heat Index: 84°F , 29°C
Dew Point: 68°F , 20°C
Humidity: 66%
Barometer: 30.16 inHg , 1021.3 hPa
Clouds: Partly cloudy
Visibility: 10 miles , 16 km
Cloud details: Partly cloudy 2400 ft
2015/05/27 15:15 KCGS 271515Z AUTO 21004KT 10SM SCT024 27/20 A3016 RMK AO1
KGAI - Gaithersburg, Maryland, USA
Distance from station: WSW 40mi, 65km
Updated: Wed, 27-May-2015 9:35pm EDT
Clear
Clear
 Wind from calm
Wind: Calm
Temperature: 70°F , 21°C
Dew Point: 66°F , 19°C
Humidity: 88%
Barometer: 30.19 inHg , 1022.4 hPa
Clouds: Clear
Visibility: 10 miles , 16 km
2015/05/28 01:35 KGAI 280135Z AUTO 00000KT 10SM CLR 21/19 A3019 RMK AO1
 
KTHV - York, Pennsylvania, USA
Distance from station: NNW 40mi, 65km
Updated: Wed, 27-May-2015 8:53pm EDT
Clear
Clear
 Wind from calm
Wind: Calm
Temperature: 70°F , 21°C
Dew Point: 66°F , 19°C
Humidity: 88%
Barometer: 30.13 inHg , 1020.3 hPa
Clouds: Clear
Visibility: 10 miles , 16 km
2015/05/28 00:53 KTHV 280053Z AUTO 00000KT 10SM CLR 21/19 A3013 RMK AO2 SLP201 T02060194
KFDK - Frederick, Maryland, USA
Distance from station: W 47mi, 75km
Updated: Wed, 27-May-2015 7:45pm EDT
NOT Current
Clear
Clear
 Wind from calm
Wind: Calm
Temperature: 79°F , 26°C
Dew Point: 70°F , 21°C
Humidity: 74%
Barometer: 30.14 inHg , 1020.7 hPa
Clouds: Clear
Visibility: 10 miles , 16 km
2015/05/27 23:45 KFDK 272345Z 00000KT 10SM SKC 26/21 A3014
 
KESN - Easton/Newnam, Maryland, USA
Distance from station: SSE 48mi, 78km
Updated: Wed, 27-May-2015 8:50pm EDT
Partly cloudy
Partly cloudy
 Wind from S
Wind: S 7 mph , 11 km/h
Temperature: 75°F , 24°C
Dew Point: 75°F , 24°C
Humidity: 100%
Barometer: 30.18 inHg , 1022 hPa
Clouds: Partly cloudy
Visibility: 10 miles , 16 km
Cloud details: Partly cloudy 4900 ft
2015/05/28 00:50 KESN 280050Z 19006KT 10SM SCT049 24/24 A3018
KDCA - Washington/Natl, Washington D.c., USA
Distance from station: SW 49mi, 79km
Updated: Wed, 27-May-2015 8:52pm EDT
Mostly cloudy
Mostly cloudy
 Wind from ESE
Wind: ESE 5 mph , 7 km/h
Temperature: 81°F , 27°C
Heat Index: 85°F , 29°C
Dew Point: 70°F , 21°C
Humidity: 70%
Barometer: 30.12 inHg , 1020 hPa
Clouds: Mostly cloudy
Visibility: 10 miles , 16 km
Cloud details: Partly cloudy 6000 ft
Partly cloudy 9000 ft
Mostly cloudy 25000 ft
2015/05/28 00:52 KDCA 280052Z 11004KT 10SM SCT060 SCT090 BKN250 27/21 A3012 RMK AO2 RAB00E23 SLP199 CB DSNT NE-E MOV NE P0001 T02670206
 
KLNS - Lancaster, Pennsylvania, USA
Distance from station: N 49mi, 79km
Updated: Wed, 27-May-2015 8:53pm EDT
Clear
Clear
 Wind from calm
Wind: Calm
Temperature: 70°F , 21°C
Dew Point: 64°F , 18°C
Humidity: 83%
Barometer: 30.12 inHg , 1020 hPa
Clouds: Clear
Visibility: 10 miles , 16 km
2015/05/28 00:53 KLNS 280053Z 00000KT 10SM CLR 21/18 A3012 RMK AO2 SLP199 T02110183
KILG - Wilmington, Delaware, USA
Distance from station: ENE 50mi, 81km
Updated: Wed, 27-May-2015 8:51pm EDT
Mostly cloudy
Mostly cloudy
 Wind from SE
Wind: SE 7 mph , 11 km/h
Temperature: 75°F , 24°C
Dew Point: 66°F , 19°C
Humidity: 74%
Barometer: 30.14 inHg , 1020.7 hPa
Clouds: Mostly cloudy
Visibility: 10 miles , 16 km
Cloud details: Few Clouds 4400 ft
Mostly cloudy 6000 ft
2015/05/28 00:51 KILG 280051Z AUTO 14006KT 10SM FEW044 BKN060 24/19 A3014 RMK AO2 LTG DSNT S SLP207 T02390194